Latest Weather Observations for Grafton AgRS

IDN60801

Issued at 7:32 pm EST Wednesday 24 May 2017 (issued every 30 minutes, with the page automatically refreshed every 10 minutes)

About weather observations | Map of weather stations | Latest weather observations for NSW | Other Formats
Station Details ID: 058077 Name: GRAFTON RESEARCH STN Lat: -29.62 Lon: 152.96 Height: 25.0 m
Data from the previous 72 hours. | See also: Recent months for locations in New South Wales
Date/Time
EST
Temp
°C
App
Temp
°C
Dew
Point
°C
Rel
Hum
%
Delta-T
°C
Wind Press
QNH
hPa
Press
MSL
hPa
Rain since
9am
mm
Dir  Spd
km/h
Gust
km/h
Spd
kts
Gust
kts
24/07:30pm 20.3 20.1 14.7 70 3.3 WNW 9 11 5 6 - - 0.6
24/07:00pm 20.2 20.2 14.3 69 3.4 W 7 15 4 8 - - 0.6
24/06:30pm 22.1 20.8 14.7 63 4.4 WNW 15 19 8 10 - - 0.6
24/06:00pm 22.7 21.1 15.0 61 4.6 WNW 17 20 9 11 - - 0.6
24/05:30pm 22.1 22.5 16.4 70 3.5 NNW 9 13 5 7 - - 0.4
24/05:00pm 22.7 23.6 16.7 69 3.7 NNE 7 9 4 5 - - 0.4
24/04:30pm 24.8 25.8 16.8 61 4.9 NW 7 11 4 6 - - 0.2
24/04:00pm 26.5 27.9 17.8 58 5.5 NNW 7 11 4 6 - - 0.2
24/03:30pm 26.5 26.6 16.4 53 6.2 NNW 11 17 6 9 - - 0.0
24/03:00pm 26.9 27.7 17.4 56 6.0 N 9 17 5 9 - - 0.0
24/02:30pm 26.9 27.3 16.2 52 6.6 NW 9 15 5 8 - - 0.0
24/02:00pm 26.6 26.9 15.9 51 6.6 NW 9 17 5 9 - - 0.0
24/01:30pm 25.9 26.5 16.7 57 5.7 NW 9 17 5 9 - - 0.0
24/01:00pm 25.3 25.7 16.2 57 5.6 NNW 9 15 5 8 - - 0.0
24/12:30pm 25.2 26.8 18.2 65 4.4 NNW 7 13 4 7 - - 0.0
24/12:00pm 24.6 25.6 16.8 62 4.8 NW 7 13 4 7 - - 0.0
24/11:30am 24.1 25.4 17.6 67 4.1 WNW 7 13 4 7 - - 0.0
24/11:00am 22.4 22.8 16.2 68 3.8 WNW 9 13 5 7 - - 0.0
24/10:30am 21.1 21.4 16.1 73 3.0 WSW 9 15 5 8 - - 0.0
24/10:00am 20.5 21.1 16.9 80 2.2 W 9 13 5 7 - - 0.0
24/09:30am 19.5 20.8 17.1 86 1.5 NW 6 9 3 5 - - 0.0
24/09:00am 17.7 17.0 15.5 87 1.3 NW 13 17 7 9 - - 0.2
24/08:30am 17.8 19.0 16.8 94 0.6 WNW 6 9 3 5 - - 0.2
24/08:00am 15.9 15.8 15.9 100 0.0 NNW 11 17 6 9 - - 0.2
24/07:30am 14.4 13.7 14.4 100 0.0 NNW 11 19 6 10 - - 0.2
24/07:00am 14.2 13.8 14.2 100 0.0 NW 9 15 5 8 - - 0.2
24/06:30am 14.1 12.9 14.1 100 0.0 W 13 20 7 11 - - 0.2
24/06:00am 14.3 14.0 14.3 100 0.0 NW 9 15 5 8 - - 0.2
24/05:30am 14.4 15.0 14.2 99 0.1 NW 4 7 2 4 - - 0.2
24/05:00am 14.6 15.6 14.4 99 0.1 NW 2 7 1 4 - - 0.2
24/04:30am 14.6 14.9 14.4 99 0.1 W 6 7 3 4 - - 0.2
24/04:00am 14.6 16.0 14.4 99 0.1 CALM 0 0 0 0 - - 0.2
24/03:30am 14.9 15.7 14.7 99 0.1 NNW 4 7 2 4 - - 0.2
24/03:00am 15.3 17.0 15.1 99 0.1 CALM 0 0 0 0 - - 0.2
24/02:30am 15.4 16.0 15.2 99 0.1 NNW 6 9 3 5 - - 0.2
24/02:00am 16.2 18.2 16.0 99 0.1 CALM 0 0 0 0 - - 0.2
24/01:30am 16.3 18.3 16.1 99 0.1 CALM 0 0 0 0 - - 0.2
24/01:00am 16.1 18.0 15.8 98 0.2 CALM 0 0 0 0 - - 0.2
24/12:30am 16.2 18.2 15.9 98 0.2 CALM 0 0 0 0 - - 0.2
24/12:00am 16.4 18.4 16.1 98 0.2 CALM 0 0 0 0 - - 0.2
 
Date/Time
EST
Temp
°C
App
Temp
°C
Dew
Point
°C
Rel
Hum
%
Delta-T
°C
Wind Press
QNH
hPa
Press
MSL
hPa
Rain since
9am
mm
Dir  Spd
km/h
Gust
km/h
Spd
kts
Gust
kts
23/11:30pm 16.5 18.6 16.2 98 0.2 CALM 0 0 0 0 - - 0.2
23/11:00pm 16.6 18.7 16.3 98 0.2 CALM 0 0 0 0 - - 0.0
23/10:30pm 16.9 19.1 16.6 98 0.2 CALM 0 0 0 0 - - 0.0
23/10:00pm 16.9 18.0 16.6 98 0.2 WNW 6 7 3 4 - - 0.0
23/09:30pm 17.1 18.2 16.6 97 0.3 NW 6 6 3 3 - - 0.0
23/09:00pm 17.2 18.3 16.7 97 0.3 W 6 7 3 4 - - 0.0
23/08:30pm 17.2 18.6 16.4 95 0.5 W 4 7 2 4 - - 0.0
23/08:00pm 17.7 20.1 17.1 96 0.4 CALM 0 0 0 0 - - 0.0
23/07:30pm 17.8 19.7 16.8 94 0.6 N 2 6 1 3 - - 0.0
23/07:00pm 18.4 19.5 17.1 92 0.8 ENE 7 9 4 5 - - 0.0
23/06:30pm 18.7 19.8 17.2 91 0.9 E 7 11 4 6 - - 0.0
23/06:00pm 19.2 20.4 17.3 89 1.2 E 7 9 4 5 - - 0.0
23/05:30pm 19.9 20.8 17.5 86 1.5 E 9 15 5 8 - - 0.0
23/05:00pm 20.8 21.7 16.2 75 2.8 ENE 6 9 3 5 - - 0.0
23/04:30pm 22.2 23.1 16.2 69 3.6 ENE 6 9 3 5 - - 0.0
23/04:00pm 23.2 24.2 16.3 65 4.2 NE 6 9 3 5 - - 0.0
23/03:30pm 23.4 24.2 16.4 64 4.3 ENE 7 11 4 6 - - 0.0
23/03:00pm 23.9 24.3 16.4 63 4.6 ESE 9 13 5 7 - - 0.0
23/02:30pm 25.2 26.9 17.1 60 5.0 NE 4 7 2 4 - - 0.0
23/02:00pm 24.4 25.4 16.4 61 4.9 NE 6 9 3 5 - - 0.0
23/01:30pm 24.3 25.2 16.0 60 5.0 WSW 6 11 3 6 - - 0.0
23/01:00pm 24.0 24.6 15.8 60 5.0 N 7 13 4 7 - - 0.0
23/12:30pm 23.6 24.1 15.6 61 4.8 W 7 13 4 7 - - 0.0
23/12:00pm 23.4 23.8 16.4 64 4.3 WNW 9 15 5 8 - - 0.0
23/11:30am 22.4 23.4 16.9 71 3.4 SW 7 13 4 7 - - 0.0
23/11:00am 21.7 22.4 16.2 71 3.3 WSW 7 13 4 7 - - 0.0
23/10:30am 21.3 21.9 16.9 76 2.7 WSW 9 13 5 7 - - 0.0
23/10:00am 20.4 20.3 16.0 76 2.6 WSW 11 15 6 8 - - 0.0
23/09:30am 19.7 20.6 17.5 87 1.3 WSW 9 11 5 6 - - 0.0
23/09:00am 18.3 18.7 16.3 88 1.2 WSW 9 11 5 6 - - 0.2
23/08:30am 17.2 17.8 16.9 98 0.2 WSW 9 15 5 8 - - -
23/08:00am 16.3 16.7 16.3 100 0.0 W 9 11 5 6 - - -
23/07:30am 14.9 14.7 14.7 99 0.1 WNW 9 11 5 6 - - -
23/07:00am 14.7 14.4 14.5 99 0.1 NW 9 9 5 5 - - -
23/06:30am 14.6 14.9 14.4 99 0.1 WNW 6 7 3 4 - - -
23/06:00am 14.7 16.1 14.4 98 0.2 CALM 0 0 0 0 - - -
23/05:30am 14.9 16.4 14.6 98 0.2 CALM 0 6 0 3 - - -
23/05:00am 15.5 15.9 15.2 98 0.2 W 7 9 4 5 - - -
23/04:30am 15.4 17.0 14.9 97 0.3 CALM 0 0 0 0 - - -
23/04:00am 16.0 17.8 15.5 97 0.3 CALM 0 0 0 0 - - -
23/03:30am 16.4 18.4 15.9 97 0.3 CALM 0 0 0 0 - - -
23/03:00am 16.5 17.4 16.0 97 0.3 W 6 9 3 5 - - 0.0
23/02:30am 16.4 17.0 15.8 96 0.4 SW 7 9 4 5 - - -
23/02:00am 16.4 18.2 15.6 95 0.5 CALM 0 7 0 4 - - -
23/01:30am 16.7 17.4 16.1 96 0.4 WSW 7 11 4 6 - - -
23/01:00am 16.7 17.5 15.9 95 0.5 S 6 9 3 5 - - -
23/12:30am 16.7 17.5 15.9 95 0.5 W 6 7 3 4 - - -
23/12:00am 16.7 17.4 15.6 93 0.6 WNW 6 7 3 4 - - -
 
Date/Time
EST
Temp
°C
App
Temp
°C
Dew
Point
°C
Rel
Hum
%
Delta-T
°C
Wind Press
QNH
hPa
Press
MSL
hPa
Rain since
9am
mm
Dir  Spd
km/h
Gust
km/h
Spd
kts
Gust
kts
22/11:30pm 17.2 17.8 15.7 91 0.9 WNW 7 9 4 5 - - -
22/11:00pm 17.3 18.5 16.0 92 0.8 WNW 4 7 2 4 - - -
22/10:30pm 17.3 17.7 16.2 93 0.7 WNW 9 13 5 7 - - -
22/10:00pm 17.2 17.8 15.7 91 0.9 W 7 9 4 5 - - -
22/09:30pm 17.3 17.7 16.2 93 0.7 NW 9 13 5 7 - - -
22/09:00pm 17.2 17.9 16.2 94 0.6 W 7 9 4 5 - - 0.0
22/08:30pm 17.0 17.6 15.9 93 0.6 WSW 7 9 4 5 - - -
22/08:00pm 17.0 17.2 15.7 92 0.8 SW 9 11 5 6 - - -
22/07:30pm 17.5 17.7 15.8 90 1.0 W 9 9 5 5 - - -
22/07:00pm 18.1 19.5 16.3 89 1.1 S 4 9 2 5 - - -
22/06:30pm 19.0 19.7 17.1 89 1.2 SSE 9 13 5 7 - - -
22/06:00pm 19.3 20.3 17.8 91 0.9 SE 9 13 5 7 - - -
22/05:30pm 19.2 20.0 17.2 88 1.2 SE 9 11 5 6 - - -
22/05:00pm 20.1 21.0 17.5 85 1.6 ESE 9 17 5 9 - - -
22/04:30pm 20.9 22.4 17.5 81 2.1 ENE 6 9 3 5 - - -
22/04:00pm 21.4 22.3 17.6 79 2.3 ENE 9 13 5 7 - - -
22/03:30pm 22.2 22.9 17.1 73 3.1 E 9 17 5 9 - - -
22/03:00pm 21.8 22.9 18.0 79 2.4 E 9 13 5 7 - - 0.2
22/02:30pm 22.2 22.8 17.8 76 2.7 E 11 17 6 9 - - -
22/02:00pm 24.2 24.8 16.7 63 4.6 E 9 15 5 8 - - -
22/01:30pm 24.9 26.0 17.1 62 4.8 ENE 7 13 4 7 - - -
22/01:00pm 24.4 25.8 17.4 65 4.4 ENE 6 11 3 6 - - -
22/12:30pm 24.1 26.4 17.8 68 3.9 SW 2 9 1 5 - - 0.2
22/12:00pm 24.1 25.6 17.6 67 4.1 WNW 6 13 3 7 - - 0.2
22/11:30am 23.5 25.9 17.9 71 3.5 SW 2 7 1 4 - - 0.2
22/11:00am 22.5 24.8 17.8 75 2.9 W 2 9 1 5 - - 0.0
22/10:30am 20.4 21.7 17.0 81 2.1 WSW 6 11 3 6 - - 0.0
22/10:00am 19.2 21.0 17.5 90 1.0 SW 4 9 2 5 - - 0.0
22/09:30am 18.1 19.6 17.6 97 0.3 WSW 6 7 3 4 - - 0.0
22/09:00am 17.5 19.6 17.3 99 0.1 WNW 2 7 1 4 - - -
22/08:30am 16.5 17.6 16.5 100 0.0 NW 6 7 3 4 - - -
22/08:00am 16.0 16.7 16.0 100 0.0 WNW 7 9 4 5 - - -
22/07:30am 15.3 17.0 15.3 100 0.0 CALM 0 0 0 0 - - -
22/07:00am 15.2 16.1 15.0 99 0.1 WSW 4 6 2 3 - - -
22/06:30am 15.2 15.7 15.0 99 0.1 WSW 6 7 3 4 - - 0.2
22/06:00am 15.1 16.7 14.9 99 0.1 CALM 0 6 0 3 - - 0.2
22/05:30am 15.0 16.6 14.8 99 0.1 CALM 0 0 0 0 - - 0.2
22/05:00am 15.4 17.1 15.2 99 0.1 CALM 0 0 0 0 - - 0.2
22/04:30am 15.4 17.1 15.2 99 0.1 CALM 0 7 0 4 - - 0.2
22/04:00am 15.3 17.0 15.1 99 0.1 CALM 0 0 0 0 - - 0.2
22/03:30am 15.6 16.2 15.3 98 0.2 WSW 6 7 3 4 - - 0.2
22/03:00am 16.2 17.8 16.0 99 0.1 WNW 2 7 1 4 - - 0.2
22/02:30am 16.7 17.6 16.5 99 0.1 NW 7 11 4 6 - - 0.2
22/02:00am 16.8 17.3 16.5 98 0.2 WNW 9 11 5 6 - - 0.2
22/01:30am 17.0 17.9 16.7 98 0.2 WNW 7 11 4 6 - - 0.2
22/01:00am 17.2 18.4 16.9 98 0.2 WNW 6 7 3 4 - - 0.2
22/12:30am 17.6 18.9 17.1 97 0.3 W 6 9 3 5 - - 0.2
22/12:00am 17.9 19.3 17.4 97 0.3 WNW 6 6 3 3 - - 0.2
 
Date/Time
EST
Temp
°C
App
Temp
°C
Dew
Point
°C
Rel
Hum
%
Delta-T
°C
Wind Press
QNH
hPa
Press
MSL
hPa
Rain since
9am
mm
Dir  Spd
km/h
Gust
km/h
Spd
kts
Gust
kts
21/11:30pm 18.1 19.6 17.6 97 0.3 WNW 6 7 3 4 - - 0.2
21/11:00pm 18.3 19.8 18.0 98 0.2 WNW 7 9 4 5 - - 0.2
21/10:30pm 18.3 19.8 18.0 98 0.2 WNW 7 9 4 5 - - 0.2
21/10:00pm 17.8 19.3 17.5 98 0.2 WSW 6 7 3 4 - - 0.2
21/09:30pm 17.8 19.6 17.3 97 0.3 W 4 7 2 4 - - 0.2
21/09:00pm 18.0 20.6 17.4 96 0.4 CALM 0 0 0 0 - - 0.2
21/08:30pm 18.2 20.8 17.6 96 0.4 CALM 0 0 0 0 - - 0.2
21/08:00pm 18.5 21.3 17.9 96 0.4 CALM 0 7 0 4 - - 0.2

Other Formats:

Comma delimited format used in spreadsheet applications
http://www.bom.gov.au/fwo/IDN60801/IDN60801.95571.axf

JavaScript Object Notation format (JSON) in row-major order
http://www.bom.gov.au/fwo/IDN60801/IDN60801.95571.json